CheckWX is a tool to help pilots better visualize weather data.  It is not intended as a substitute for an official pre-flight weather briefing.

21:13:08 UTC

LFBT METAR
Tarbes-Lourdes-Pyrénées Airport
Tarbes/Lourdes/Pyrénées, France
Current

13 mins ago

LFBT 172100Z AUTO VRB03KT CAVOK 21/19 Q1017 NOSIG
Observed
Sep-17 @ 21:00 UTC
Wind
  • Variable at 3 KTS
Visibility
10,000+ meters
Flight Rules
VFR
Cloud Levels
  • Clear skies
Temperature
21°C / 70°F
Dewpoint
19°C / 66°F
Humidity
88%
Altimeter
30.03" Hg
Pressure
1016.92 hPa
Previous

43 mins ago

LFBT 172030Z AUTO 17003KT 9999 FEW062 SCT190 BKN220 22/19 Q1017 NOSIG
Observed
Sep-17 @ 20:30 UTC
Wind
  • 170° at 3 KTS
Visibility
10,000+ meters
Flight Rules
VFR
Cloud Levels
  • Few at 6,200' AGL
  • Scattered at 19,000' AGL
  • Broken at 22,000' AGL
Temperature
22°C / 72°F
Dewpoint
19°C / 66°F
Humidity
83%
Altimeter
30.03" Hg
Pressure
1016.92 hPa
Previous

1 hour ago

LFBT 172000Z AUTO 16004KT CAVOK 22/19 Q1017 NOSIG
Observed
Sep-17 @ 20:00 UTC
Wind
  • 160° at 4 KTS
Visibility
10,000+ meters
Flight Rules
VFR
Cloud Levels
  • Clear skies
Temperature
22°C / 72°F
Dewpoint
19°C / 66°F
Humidity
83%
Altimeter
30.03" Hg
Pressure
1016.92 hPa